Time;durP1;ratioP1;P1;durP2;ratioP2;P2;SDS_P1;SDS_P2;PMS_P1;PMS_P2;Temp;Humidity;BMP_temperature;BMP_pressure;BME280_temperature;BME280_humidity;BME280_pressure;Samples;Min_cycle;Max_cycle;Signal;HPM_P1;HPM_P2
2022/05/04 00:00:04;;;;;;;4.72;3.55;;;;;;;14.31;44.96;101200.50;5068673;28;20469;-56
2022/05/04 00:02:31;;;;;;;4.20;3.43;;;;;;;14.29;45.10;101198.00;5074735;28;20475;-56
2022/05/04 00:04:58;;;;;;;4.35;3.40;;;;;;;14.28;45.11;101187.56;5071376;28;21286;-56
2022/05/04 00:07:25;;;;;;;3.83;3.10;;;;;;;14.29;44.81;101184.69;5080864;28;20777;-55
2022/05/04 00:09:53;;;;;;;5.47;3.67;;;;;;;14.28;44.94;101190.22;5070205;28;20414;-55
2022/05/04 00:12:21;;;;;;;5.55;3.50;;;;;;;14.23;44.81;101190.75;5079960;28;20433;-57
2022/05/04 00:14:48;;;;;;;3.85;3.40;;;;;;;14.19;45.17;101197.47;5072773;28;20837;-56
2022/05/04 00:17:15;;;;;;;3.38;3.08;;;;;;;14.18;45.05;101203.81;5070014;28;20431;-56
2022/05/04 00:19:42;;;;;;;5.05;3.40;;;;;;;14.20;44.95;101193.78;5063681;28;20485;-56
2022/05/04 00:22:09;;;;;;;5.60;3.57;;;;;;;14.19;44.64;101193.97;5065321;28;20511;-56
2022/05/04 00:24:36;;;;;;;4.22;3.28;;;;;;;14.15;44.80;101188.16;5072858;28;20518;-56
2022/05/04 00:27:04;;;;;;;4.60;3.10;;;;;;;14.15;44.62;101197.00;5071190;28;20415;-57
2022/05/04 00:29:32;;;;;;;3.35;2.90;;;;;;;14.18;44.92;101195.00;5081841;28;20928;-57
2022/05/04 00:31:59;;;;;;;4.07;2.70;;;;;;;14.14;44.57;101186.53;5066402;28;20477;-57
2022/05/04 00:34:26;;;;;;;5.18;3.58;;;;;;;14.11;44.75;101193.03;5073884;28;20418;-57
2022/05/04 00:36:53;;;;;;;4.75;2.97;;;;;;;14.13;44.86;101192.84;5074612;28;20424;-56
2022/05/04 00:39:20;;;;;;;4.60;2.97;;;;;;;14.11;44.94;101192.22;5081726;28;20438;-56
2022/05/04 00:41:48;;;;;;;3.22;2.90;;;;;;;14.06;44.63;101183.91;5073420;28;20435;-56
2022/05/04 00:44:58;;;;;;;3.75;2.85;;;;;;;14.06;45.06;101191.91;5086164;27;20460;-56
2022/05/04 00:47:25;;;;;;;4.00;2.90;;;;;;;14.05;44.96;101179.63;5069527;28;20517;-57
2022/05/04 00:49:53;;;;;;;3.92;3.40;;;;;;;14.02;44.86;101190.63;5085139;28;20444;-56
2022/05/04 00:52:21;;;;;;;6.45;3.95;;;;;;;14.04;44.87;101194.75;5082046;28;20471;-55
2022/05/04 00:54:50;;;;;;;4.22;3.60;;;;;;;14.05;45.29;101199.09;5072679;28;20446;-57
2022/05/04 00:58:54;;;;;;;5.15;3.28;;;;;;;14.04;45.14;101188.59;5071867;28;20420;-56
2022/05/04 01:00:08;;;;;;;4.20;3.10;;;;;;;14.02;45.28;101191.44;5079064;28;20470;-56
2022/05/04 01:02:35;;;;;;;4.95;3.38;;;;;;;13.98;45.58;101200.00;5075896;28;20928;-56
2022/05/04 01:05:02;;;;;;;5.68;3.53;;;;;;;13.96;45.47;101197.53;5077307;28;20485;-57
2022/05/04 01:07:29;;;;;;;4.03;3.20;;;;;;;13.97;45.73;101199.16;5067240;28;20420;-58
2022/05/04 01:09:56;;;;;;;4.50;3.50;;;;;;;13.96;45.52;101197.53;5082010;28;20983;-56
2022/05/04 01:12:23;;;;;;;4.80;3.40;;;;;;;13.96;45.87;101203.66;5074177;28;20414;-58
2022/05/04 01:14:50;;;;;;;4.00;3.30;;;;;;;13.93;45.54;101203.19;5074097;28;20913;-56
2022/05/04 01:17:18;;;;;;;4.20;3.13;;;;;;;13.94;45.97;101203.03;5067628;28;20529;-56
2022/05/04 01:21:59;;;;;;;4.07;3.20;;;;;;;13.95;45.90;101195.84;5097411;27;20400;-56
2022/05/04 01:24:26;;;;;;;4.43;3.60;;;;;;;13.99;45.76;101202.50;5098810;28;20406;-56
2022/05/04 01:26:53;;;;;;;4.35;3.90;;;;;;;14.02;45.43;101207.44;5087103;28;20479;-58
2022/05/04 01:29:20;;;;;;;5.40;3.63;;;;;;;13.93;45.55;101204.03;5102865;28;20424;-57
2022/05/04 01:31:47;;;;;;;5.75;3.60;;;;;;;14.01;45.47;101204.97;5084887;28;20850;-56
2022/05/04 01:34:14;;;;;;;5.28;3.90;;;;;;;14.01;45.75;101204.97;5084344;28;20795;-59
2022/05/04 01:36:41;;;;;;;4.68;3.65;;;;;;;13.99;45.70;101206.97;5088471;28;20449;-56
2022/05/04 01:39:09;;;;;;;5.18;3.45;;;;;;;13.84;46.15;101204.28;5098889;28;20412;-57
2022/05/04 01:44:21;;;;;;;4.97;3.50;;;;;;;13.73;46.64;101213.53;5097755;28;20441;-56
2022/05/04 01:46:48;;;;;;;6.30;4.00;;;;;;;13.67;46.79;101206.25;5095184;28;20481;-57
2022/05/04 01:49:15;;;;;;;7.28;4.00;;;;;;;13.80;46.44;101205.66;5091444;28;20919;-58
2022/05/04 01:51:42;;;;;;;5.65;3.80;;;;;;;13.76;46.22;101207.84;5096333;28;20516;-56
2022/05/04 01:54:55;;;;;;;4.93;3.93;;;;;;;13.64;46.12;101207.44;5081335;28;20408;-56
2022/05/04 01:57:22;;;;;;;6.53;4.00;;;;;;;13.76;45.96;101211.34;5069438;28;20508;-57
2022/05/04 01:59:49;;;;;;;5.18;4.30;;;;;;;13.75;45.88;101209.66;5084221;28;20423;-56
2022/05/04 02:02:16;;;;;;;5.13;3.95;;;;;;;13.74;45.73;101208.03;5072959;28;20457;-55
2022/05/04 02:04:44;;;;;;;5.77;3.70;;;;;;;13.67;46.04;101214.25;5074984;28;20420;-55
2022/05/04 02:07:11;;;;;;;4.85;3.70;;;;;;;13.64;46.30;101217.25;5069015;28;20438;-55
2022/05/04 02:09:38;;;;;;;4.95;3.50;;;;;;;13.55;46.25;101216.50;5082604;28;20426;-56
2022/05/04 02:12:08;;;;;;;5.95;3.60;;;;;;;13.46;46.65;101214.88;5071048;28;20426;-54
2022/05/04 02:14:35;;;;;;;4.65;3.40;;;;;;;13.41;46.59;101211.91;5080459;28;20467;-57
2022/05/04 02:17:02;;;;;;;12.45;4.38;;;;;;;13.39;46.77;101220.91;5066518;28;20420;-56
2022/05/04 02:19:29;;;;;;;5.80;3.78;;;;;;;13.39;46.91;101215.56;5082527;28;20479;-56
2022/05/04 02:21:56;;;;;;;4.78;3.45;;;;;;;13.37;46.71;101212.25;5068681;28;20461;-59
2022/05/04 02:24:23;;;;;;;4.63;3.50;;;;;;;13.35;46.76;101205.47;5078007;28;20420;-56
2022/05/04 02:26:50;;;;;;;5.23;3.70;;;;;;;13.38;46.53;101210.44;5067665;28;20424;-57
2022/05/04 02:29:19;;;;;;;4.53;3.20;;;;;;;13.41;46.77;101209.25;5067842;28;20420;-56
2022/05/04 02:31:46;;;;;;;4.10;3.22;;;;;;;13.41;46.80;101210.09;5068061;28;20422;-56
2022/05/04 02:34:13;;;;;;;3.70;3.30;;;;;;;13.39;47.18;101212.91;5080689;28;20430;-57
2022/05/04 02:39:24;;;;;;;5.07;3.20;;;;;;;13.40;46.97;101216.44;5073487;28;20521;-56
2022/05/04 02:41:52;;;;;;;5.90;3.50;;;;;;;13.39;46.98;101212.09;5083114;28;20442;-56
2022/05/04 02:44:20;;;;;;;5.32;3.50;;;;;;;13.39;47.27;101218.25;5084580;28;20414;-55
2022/05/04 02:46:49;;;;;;;5.47;3.80;;;;;;;13.39;47.13;101218.25;5074929;28;20412;-54
2022/05/04 02:49:16;;;;;;;9.32;3.85;;;;;;;13.40;47.13;101221.75;5073280;28;20896;-56
2022/05/04 02:51:43;;;;;;;9.33;3.50;;;;;;;13.39;47.13;101226.22;5068060;28;20490;-56
2022/05/04 02:54:11;;;;;;;6.90;3.78;;;;;;;13.37;47.10;101222.09;5095173;28;20975;-55
2022/05/04 02:57:41;;;;;;;5.80;3.93;;;;;;;13.39;47.30;101225.41;5065867;28;20411;-56
2022/05/04 03:00:09;;;;;;;7.82;3.88;;;;;;;13.37;47.21;101222.09;5061507;28;20430;-56
2022/05/04 03:02:35;;;;;;;5.80;3.53;;;;;;;13.42;47.24;101219.75;5064997;28;20489;-54
2022/05/04 03:05:05;;;;;;;5.60;3.60;;;;;;;13.45;47.09;101227.38;5066484;28;20506;-56
2022/05/04 03:07:33;;;;;;;6.43;3.10;;;;;;;13.46;46.67;101220.22;5064291;28;20428;-56
2022/05/04 03:10:00;;;;;;;5.18;3.13;;;;;;;13.48;46.79;101227.00;5066129;28;20439;-56
2022/05/04 03:12:28;;;;;;;4.20;2.90;;;;;;;13.49;46.24;101230.53;5067959;28;20847;-56
2022/05/04 03:14:56;;;;;;;4.60;3.13;;;;;;;13.54;46.22;101234.31;5065795;28;20431;-56
2022/05/04 03:17:23;;;;;;;4.03;3.15;;;;;;;13.55;46.56;101232.47;5063849;28;20460;-56
2022/05/04 03:19:51;;;;;;;4.55;2.58;;;;;;;13.54;46.26;101228.13;5067107;28;20943;-55
2022/05/04 03:22:18;;;;;;;3.15;2.65;;;;;;;13.60;46.03;101227.44;5067557;28;20420;-55
2022/05/04 03:24:45;;;;;;;5.65;2.70;;;;;;;13.58;46.15;101230.28;5064386;28;20470;-56
2022/05/04 03:27:12;;;;;;;10.07;3.42;;;;;;;13.64;46.07;101231.41;5066613;28;20415;-56
2022/05/04 03:29:39;;;;;;;6.32;2.97;;;;;;;13.65;45.85;101230.41;5065873;28;20443;-56
2022/05/04 03:32:09;;;;;;;6.67;2.70;;;;;;;13.68;46.04;101237.19;5065648;28;20496;-56
2022/05/04 03:34:36;;;;;;;7.18;2.90;;;;;;;13.72;45.59;101239.34;5064966;28;20502;-55
2022/05/04 03:37:04;;;;;;;6.18;3.15;;;;;;;13.75;45.65;101243.47;5065439;28;20463;-56
2022/05/04 03:39:31;;;;;;;28.02;4.78;;;;;;;13.75;45.88;101240.81;5065107;28;20424;-56
2022/05/04 03:41:59;;;;;;;12.77;4.28;;;;;;;13.81;45.74;101245.44;5065111;28;20423;-56
2022/05/04 03:44:26;;;;;;;11.48;3.33;;;;;;;13.83;45.54;101243.44;5065470;28;20416;-56
2022/05/04 03:46:54;;;;;;;12.15;3.50;;;;;;;13.85;45.94;101245.94;5064856;28;20434;-56
2022/05/04 03:49:24;;;;;;;9.77;3.50;;;;;;;13.89;45.69;101252.53;5063614;28;20427;-56
2022/05/04 03:51:53;;;;;;;11.40;3.33;;;;;;;13.95;45.53;101244.69;5063747;28;20502;-54
2022/05/04 03:54:20;;;;;;;72.53;6.82;;;;;;;14.06;45.53;101250.56;5064493;28;20431;-55
2022/05/04 03:56:48;;;;;;;33.47;4.18;;;;;;;14.17;45.22;101246.63;5077276;28;20465;-56
2022/05/04 03:59:15;;;;;;;26.50;4.40;;;;;;;14.27;45.18;101250.72;5084110;28;20475;-56
2022/05/04 04:01:42;;;;;;;17.73;4.38;;;;;;;14.42;44.97;101250.75;5071481;28;20473;-55
2022/05/04 04:04:09;;;;;;;15.03;3.80;;;;;;;14.62;44.37;101258.22;5067357;28;20434;-56
2022/05/04 04:06:38;;;;;;;25.95;3.72;;;;;;;14.81;44.01;101260.34;5068356;28;20918;-56
2022/05/04 04:09:05;;;;;;;12.40;3.30;;;;;;;15.06;43.31;101262.75;5054962;28;20412;-56
2022/05/04 04:11:32;;;;;;;4.97;2.60;;;;;;;15.30;42.12;101256.25;5054208;28;20424;-56
2022/05/04 04:14:00;;;;;;;9.15;2.88;;;;;;;15.47;41.98;101255.00;5055214;28;20484;-63
2022/05/04 04:16:27;;;;;;;7.55;2.67;;;;;;;15.77;41.13;101252.28;5053676;28;20433;-57
2022/05/04 04:18:54;;;;;;;11.32;2.80;;;;;;;16.04;40.71;101256.00;5051096;28;20424;-57
2022/05/04 04:24:08;;;;;;;17.55;4.03;;;;;;;16.72;39.07;101255.44;5052698;28;20510;-57
2022/05/04 04:26:37;;;;;;;7.68;2.95;;;;;;;17.07;38.42;101262.63;5057604;28;20418;-57
2022/05/04 04:29:04;;;;;;;6.25;2.70;;;;;;;17.36;37.68;101251.63;5063361;28;20499;-57
2022/05/04 04:31:32;;;;;;;7.50;2.85;;;;;;;17.68;37.36;101249.25;5061075;28;20427;-57
2022/05/04 04:34:01;;;;;;;8.95;3.00;;;;;;;18.05;36.60;101257.75;5064138;28;20415;-55
2022/05/04 04:36:28;;;;;;;5.55;3.08;;;;;;;18.36;35.96;101253.59;5062739;28;20430;-59
2022/05/04 04:38:55;;;;;;;8.35;2.80;;;;;;;18.71;35.15;101256.03;5063679;28;20450;-56
2022/05/04 04:41:24;;;;;;;6.18;2.90;;;;;;;19.05;34.69;101254.91;5054588;28;20428;-56
2022/05/04 04:43:51;;;;;;;8.43;2.70;;;;;;;19.41;33.98;101255.34;5054041;28;20420;-59
2022/05/04 04:46:18;;;;;;;8.85;3.80;;;;;;;19.73;33.56;101248.13;5054502;28;20463;-56
2022/05/04 04:48:45;;;;;;;5.38;2.90;;;;;;;20.15;32.67;101247.59;5054591;28;20461;-56
2022/05/04 04:51:12;;;;;;;6.63;2.78;;;;;;;20.49;32.27;101248.13;5056289;28;20423;-57
2022/05/04 04:53:40;;;;;;;5.50;2.50;;;;;;;20.88;31.52;101243.38;5028038;28;20519;-56
2022/05/04 04:56:07;;;;;;;12.05;3.00;;;;;;;21.17;31.13;101245.28;5052071;28;21079;-56
2022/05/04 04:58:35;;;;;;;9.55;2.88;;;;;;;21.68;30.40;101248.56;5050070;28;20807;-58
2022/05/04 05:01:03;;;;;;;5.60;2.20;;;;;;;21.52;30.74;101249.22;5051789;28;20444;-59
2022/05/04 05:03:30;;;;;;;4.43;1.83;;;;;;;21.74;30.67;101247.63;5048427;28;20883;-60
2022/05/04 05:05:57;;;;;;;3.08;1.85;;;;;;;22.06;29.99;101252.72;5053700;28;20456;-57
2022/05/04 05:08:25;;;;;;;4.38;1.80;;;;;;;22.32;29.60;101246.06;5052897;28;20471;-57
2022/05/04 05:10:52;;;;;;;4.05;2.10;;;;;;;22.59;29.40;101242.88;5049501;28;20436;-62
2022/05/04 05:13:19;;;;;;;3.45;2.22;;;;;;;22.89;29.09;101241.88;5050692;28;20988;-58
2022/05/04 05:18:32;;;;;;;3.20;2.10;;;;;;;23.66;28.21;101221.69;5049077;28;20550;-60
2022/05/04 05:20:59;;;;;;;3.00;1.88;;;;;;;24.02;27.80;101227.69;5049743;28;20425;-58
2022/05/04 05:23:26;;;;;;;4.00;2.08;;;;;;;24.30;27.47;101231.38;5049634;28;20417;-59
2022/05/04 05:25:53;;;;;;;4.32;1.98;;;;;;;24.71;26.94;101230.03;5049082;28;20416;-58
2022/05/04 05:28:21;;;;;;;6.65;2.10;;;;;;;24.93;26.68;101230.03;5049220;28;20471;-58
2022/05/04 05:30:49;;;;;;;216.80;106.72;;;;;;;25.15;26.52;101227.28;5051351;28;20422;-58
2022/05/04 05:33:16;;;;;;;10.10;6.37;;;;;;;25.47;25.93;101231.97;5050118;28;20898;-58
2022/05/04 05:35:43;;;;;;;2.90;1.90;;;;;;;25.69;25.78;101236.53;5062403;28;20450;-58
2022/05/04 05:38:10;;;;;;;4.20;2.03;;;;;;;26.01;25.44;101228.38;5058114;28;20445;-60
2022/05/04 05:40:38;;;;;;;4.63;2.33;;;;;;;26.22;25.37;101231.25;5063908;28;21092;-59
2022/05/04 05:43:05;;;;;;;4.32;2.30;;;;;;;26.52;24.65;101231.41;5063903;28;20443;-61
2022/05/04 05:45:32;;;;;;;5.43;2.30;;;;;;;26.87;24.41;101229.94;5060755;28;20462;-62
2022/05/04 05:48:00;;;;;;;3.30;2.25;;;;;;;27.13;24.06;101227.28;5064892;28;20950;-60
2022/05/04 05:50:28;;;;;;;4.65;2.30;;;;;;;27.21;24.03;101229.50;5063408;28;20426;-60
2022/05/04 05:52:55;;;;;;;4.70;3.10;;;;;;;27.45;24.05;101224.38;5062714;28;20431;-62
2022/05/04 05:55:22;;;;;;;6.15;3.40;;;;;;;27.79;23.34;101221.13;5062978;28;20414;-61
2022/05/04 05:57:49;;;;;;;4.82;2.97;;;;;;;28.09;23.31;101226.84;5061801;28;20875;-60
2022/05/04 06:00:16;;;;;;;6.00;3.20;;;;;;;28.23;23.01;101225.16;5058398;28;20456;-62
2022/05/04 06:02:45;;;;;;;5.07;2.65;;;;;;;28.54;22.40;101227.81;5046433;28;21006;-60
2022/05/04 06:05:13;;;;;;;5.38;2.38;;;;;;;28.73;22.36;101230.75;5049403;28;20534;-60
2022/05/04 06:07:41;;;;;;;6.07;2.70;;;;;;;29.01;21.84;101234.72;5049233;28;20499;-60
2022/05/04 06:10:09;;;;;;;4.28;2.70;;;;;;;29.19;21.65;101227.81;5057801;28;20509;-59
2022/05/04 06:12:38;;;;;;;4.20;2.80;;;;;;;29.38;21.38;101232.59;5069049;28;20423;-60
2022/05/04 06:15:07;;;;;;;2.40;2.10;;;;;;;29.49;21.37;101226.78;5060495;28;20844;-61
2022/05/04 06:17:34;;;;;;;4.15;1.98;;;;;;;29.77;20.96;101229.88;5061259;28;20451;-60
2022/05/04 06:20:01;;;;;;;2.40;1.80;;;;;;;30.11;20.85;101229.00;5060683;28;20438;-62
2022/05/04 06:22:30;;;;;;;4.57;2.38;;;;;;;30.36;20.52;101227.94;5060958;28;20425;-61
2022/05/04 06:24:57;;;;;;;3.40;1.60;;;;;;;30.68;19.97;101227.28;5061518;28;20422;-61
2022/05/04 06:27:24;;;;;;;4.13;1.48;;;;;;;30.73;19.68;101228.31;5063060;28;21128;-61
2022/05/04 06:35:19;;;;;;;3.20;1.52;;;;;;;31.39;18.54;101227.38;5060956;28;20989;-61
2022/05/04 06:37:48;;;;;;;2.83;1.70;;;;;;;31.21;19.29;101231.75;5063706;28;20959;-60
2022/05/04 06:40:15;;;;;;;6.18;2.00;;;;;;;31.57;18.91;101222.22;5061162;28;21383;-60
2022/05/04 06:42:42;;;;;;;3.47;1.70;;;;;;;31.72;18.18;101216.44;5062163;28;20542;-60
2022/05/04 06:45:10;;;;;;;2.22;1.45;;;;;;;32.02;17.95;101230.72;5061042;28;20466;-60
2022/05/04 06:47:37;;;;;;;3.78;1.63;;;;;;;31.78;18.38;101228.13;5063020;28;20434;-60
2022/05/04 06:50:05;;;;;;;2.50;1.40;;;;;;;32.01;18.03;101227.16;5059943;28;20431;-62
2022/05/04 06:52:32;;;;;;;2.60;1.58;;;;;;;31.39;18.35;101223.84;5063256;28;20419;-60
2022/05/04 06:55:01;;;;;;;1.95;1.50;;;;;;;31.83;17.92;101220.63;5064633;28;20461;-60
2022/05/04 06:57:28;;;;;;;1.58;1.35;;;;;;;31.69;17.83;101228.00;5053535;28;20464;-60
2022/05/04 06:59:55;;;;;;;1.50;1.40;;;;;;;31.37;17.96;101228.81;5057677;28;20444;-60
2022/05/04 07:02:22;;;;;;;2.17;1.27;;;;;;;30.86;18.66;101230.31;5067110;28;20421;-61
2022/05/04 07:04:49;;;;;;;2.13;1.50;;;;;;;30.85;18.87;101226.78;5062601;28;20920;-60
2022/05/04 07:07:16;;;;;;;2.40;1.50;;;;;;;30.46;19.10;101225.06;5063758;28;20906;-61
2022/05/04 07:09:43;;;;;;;3.97;1.73;;;;;;;30.27;19.35;101222.25;5064393;28;20446;-61
2022/05/04 07:12:12;;;;;;;5.07;1.70;;;;;;;29.69;20.35;101220.34;5063201;28;20454;-62
2022/05/04 07:14:39;;;;;;;3.92;1.70;;;;;;;29.54;20.45;101224.00;5063567;28;20443;-61
2022/05/04 07:17:06;;;;;;;2.65;1.80;;;;;;;29.49;20.34;101215.84;5066985;28;20431;-59
2022/05/04 07:19:33;;;;;;;3.13;1.80;;;;;;;29.58;20.62;101218.78;5062401;28;20493;-60
2022/05/04 07:22:00;;;;;;;3.08;1.70;;;;;;;29.24;20.92;101211.38;5063808;28;20462;-62
2022/05/04 07:24:27;;;;;;;1.83;1.60;;;;;;;29.22;21.00;101221.78;5061758;28;20419;-61
2022/05/04 07:26:54;;;;;;;4.90;2.00;;;;;;;28.00;21.86;101218.41;5062287;28;20528;-60
2022/05/04 07:29:22;;;;;;;5.03;1.60;;;;;;;27.69;22.34;101228.47;5062533;28;20876;-60
2022/05/04 07:31:49;;;;;;;4.13;2.08;;;;;;;28.10;21.96;101225.75;5063271;28;20407;-60
2022/05/04 07:34:17;;;;;;;2.75;1.73;;;;;;;28.27;21.64;101226.28;5063520;28;20489;-60
2022/05/04 07:36:44;;;;;;;2.60;1.57;;;;;;;28.16;21.86;101230.94;5062618;28;20422;-60
2022/05/04 07:42:21;;;;;;;3.38;1.75;;;;;;;27.98;22.53;101221.41;5063419;28;20932;-61
2022/05/04 07:44:46;;;;;;;3.17;1.55;;;;;;;27.45;22.95;101229.03;5067553;28;20413;-60
2022/05/04 07:47:13;;;;;;;6.68;1.90;;;;;;;27.75;22.80;101224.66;5066727;28;20848;-60
2022/05/04 07:49:41;;;;;;;3.30;1.55;;;;;;;27.76;22.78;101229.03;5067085;28;20854;-60
2022/05/04 07:52:08;;;;;;;4.20;1.80;;;;;;;27.34;23.32;101238.28;5067316;28;20472;-60
2022/05/04 07:54:35;;;;;;;2.75;1.67;;;;;;;26.84;23.92;101240.53;5066720;28;20414;-61
2022/05/04 07:57:02;;;;;;;2.90;1.60;;;;;;;26.95;24.20;101242.22;5067202;28;20442;-61
2022/05/04 07:59:29;;;;;;;2.37;1.57;;;;;;;26.89;23.99;101246.81;5067412;28;20429;-60
2022/05/04 08:04:51;;;;;;;4.57;1.63;;;;;;;26.24;24.93;101240.78;5060170;28;20426;-58
2022/05/04 08:07:18;;;;;;;6.63;1.80;;;;;;;26.28;24.86;101241.06;5058290;28;20428;-59
2022/05/04 08:09:45;;;;;;;2.53;1.70;;;;;;;26.23;24.74;101243.75;5057504;28;20528;-59
2022/05/04 08:12:13;;;;;;;2.50;1.43;;;;;;;26.44;24.94;101242.78;5060307;28;20428;-58
2022/05/04 08:14:40;;;;;;;2.05;1.50;;;;;;;26.17;25.29;101244.81;5060918;28;20515;-60
2022/05/04 08:17:09;;;;;;;2.50;1.60;;;;;;;26.31;25.31;101243.25;5057248;28;20423;-59
2022/05/04 08:19:36;;;;;;;1.80;1.60;;;;;;;26.66;24.76;101239.91;5059631;28;20412;-59
2022/05/04 08:22:03;;;;;;;2.47;1.70;;;;;;;26.81;24.50;101246.50;5059997;28;20428;-59
2022/05/04 08:24:30;;;;;;;3.45;1.77;;;;;;;26.49;25.18;101244.72;5059908;28;21024;-59
2022/05/04 08:26:57;;;;;;;2.25;1.50;;;;;;;26.30;25.59;101241.59;5060237;28;20552;-59
2022/05/04 08:29:24;;;;;;;3.85;1.73;;;;;;;26.74;24.66;101241.34;5060432;28;20423;-59
2022/05/04 08:31:51;;;;;;;3.67;1.70;;;;;;;26.67;25.09;101249.72;5059547;28;20427;-60
2022/05/04 08:34:20;;;;;;;2.10;1.50;;;;;;;26.80;24.90;101237.53;5060760;28;20427;-58
2022/05/04 08:36:47;;;;;;;3.47;1.67;;;;;;;26.91;25.04;101241.13;5059073;28;20444;-60
2022/05/04 08:39:14;;;;;;;2.28;1.48;;;;;;;26.91;25.20;101241.13;5060200;28;20428;-60
2022/05/04 08:41:42;;;;;;;2.42;1.75;;;;;;;26.60;25.00;101238.25;5061012;28;20435;-59
2022/05/04 08:44:11;;;;;;;4.05;1.70;;;;;;;26.70;25.19;101238.31;5059896;28;20428;-59
2022/05/04 08:46:39;;;;;;;6.03;1.90;;;;;;;26.96;25.57;101234.88;5055176;28;20890;-60
2022/05/04 08:49:07;;;;;;;4.43;1.90;;;;;;;26.78;25.46;101236.19;5058694;28;20878;-59
2022/05/04 08:51:37;;;;;;;3.63;2.30;;;;;;;26.96;24.56;101238.41;5059064;28;20454;-58
2022/05/04 08:54:04;;;;;;;4.38;2.42;;;;;;;26.90;24.68;101234.03;5057488;28;20417;-60
2022/05/04 08:56:32;;;;;;;3.25;1.70;;;;;;;26.96;24.32;101234.88;5059667;28;20419;-58
2022/05/04 08:58:59;;;;;;;3.10;1.98;;;;;;;26.83;24.69;101237.00;5057441;28;20984;-59
2022/05/04 09:01:26;;;;;;;2.67;1.70;;;;;;;26.99;24.28;101235.16;5073911;28;20426;-58
2022/05/04 09:03:53;;;;;;;2.50;1.95;;;;;;;26.85;24.30;101226.69;5080377;28;20468;-58
2022/05/04 09:06:27;;;;;;;3.58;2.08;;;;;;;26.87;24.14;101229.94;5077810;28;20438;-59
2022/05/04 09:08:58;;;;;;;3.80;2.17;;;;;;;27.00;24.12;101220.47;5073444;28;20495;-60
2022/05/04 09:11:26;;;;;;;3.83;2.00;;;;;;;26.75;24.34;101234.78;5075781;28;20422;-59
2022/05/04 09:13:54;;;;;;;4.07;1.50;;;;;;;26.82;24.11;101227.22;5064776;28;20457;-60
2022/05/04 09:16:28;;;;;;;2.63;1.60;;;;;;;26.86;24.22;101232.94;5064254;28;20430;-60
2022/05/04 09:18:55;;;;;;;2.45;1.60;;;;;;;26.58;24.04;101220.53;5060886;28;20423;-59
2022/05/04 09:21:23;;;;;;;2.08;1.40;;;;;;;26.52;24.05;101228.69;5061524;28;20898;-59
2022/05/04 09:23:53;;;;;;;2.55;2.13;;;;;;;26.68;24.03;101226.06;5062897;28;20430;-60
2022/05/04 09:26:22;;;;;;;4.25;1.50;;;;;;;26.68;24.46;101226.06;5051962;28;20859;-59
2022/05/04 09:28:51;;;;;;;3.60;1.70;;;;;;;26.64;23.78;101227.69;5047209;28;20427;-60
2022/05/04 09:31:19;;;;;;;4.32;1.48;;;;;;;26.58;23.43;101215.94;5061411;28;20439;-60
2022/05/04 09:33:53;;;;;;;2.95;1.52;;;;;;;26.83;23.46;101217.97;5065578;28;20414;-59
2022/05/04 09:36:32;;;;;;;2.70;1.50;;;;;;;26.91;23.18;101215.81;5061188;28;20418;-59
2022/05/04 09:47:20;;;;;;;3.28;1.70;;;;;;;25.95;24.55;101210.41;5062822;28;20417;-60
2022/05/04 09:49:48;;;;;;;2.10;1.50;;;;;;;26.18;24.24;101211.09;5064899;28;20442;-58
2022/05/04 09:52:16;;;;;;;3.85;1.65;;;;;;;26.29;24.49;101213.63;5063564;28;20415;-60
2022/05/04 09:54:46;;;;;;;2.55;1.90;;;;;;;26.07;24.28;101202.06;5063704;28;20484;-61
2022/05/04 09:57:16;;;;;;;1.75;1.50;;;;;;;26.15;24.21;101195.34;5064998;28;20509;-61
2022/05/04 09:59:44;;;;;;;3.70;1.42;;;;;;;26.06;24.83;101200.44;5066128;28;20469;-59
2022/05/04 10:02:13;;;;;;;4.90;1.50;;;;;;;26.30;24.51;101200.84;5062215;28;20473;-56
2022/05/04 10:04:42;;;;;;;3.15;1.50;;;;;;;26.11;24.20;101200.47;5065537;28;20468;-60
2022/05/04 10:07:11;;;;;;;2.13;1.58;;;;;;;26.00;24.34;101196.03;5064050;28;20965;-59
2022/05/04 10:09:38;;;;;;;2.20;1.60;;;;;;;25.50;24.59;101201.63;5065326;28;20504;-59
2022/05/04 10:12:07;;;;;;;2.13;1.30;;;;;;;26.00;24.27;101191.44;5064507;28;20493;-60
2022/05/04 10:14:36;;;;;;;1.80;1.38;;;;;;;26.00;23.98;101188.72;5064508;28;20419;-59
2022/05/04 10:17:11;;;;;;;3.65;1.80;;;;;;;26.02;24.15;101189.28;5058053;28;20938;-59
2022/05/04 10:19:46;;;;;;;2.58;1.75;;;;;;;25.81;24.37;101185.56;5057324;28;20850;-56
2022/05/04 10:22:18;;;;;;;2.15;1.52;;;;;;;25.55;24.74;101184.53;5060105;28;20529;-60
2022/05/04 10:24:46;;;;;;;1.55;1.45;;;;;;;25.84;24.46;101171.47;5064613;28;20444;-59
2022/05/04 10:27:18;;;;;;;2.78;1.60;;;;;;;25.91;24.46;101176.66;5065656;28;20426;-59
2022/05/04 10:32:37;;;;;;;2.30;1.80;;;;;;;26.21;24.17;101165.19;5064176;28;20418;-60
2022/05/04 10:35:23;;;;;;;2.13;1.58;;;;;;;26.29;23.94;101153.03;5062938;28;20427;-59
2022/05/04 10:40:26;;;;;;;3.80;2.25;;;;;;;26.47;24.39;101160.72;5061023;28;20945;-59
2022/05/04 10:42:55;;;;;;;3.30;1.60;;;;;;;26.58;23.43;101160.72;5058847;28;20746;-59
2022/05/04 10:45:24;;;;;;;3.17;2.10;;;;;;;26.57;23.09;101159.09;5056567;28;20884;-59
2022/05/04 10:47:51;;;;;;;1.60;1.50;;;;;;;26.59;23.28;101148.78;5058370;28;20431;-60
2022/05/04 10:50:19;;;;;;;2.80;1.63;;;;;;;26.65;23.39;101147.72;5060514;28;21047;-60
2022/05/04 10:52:50;;;;;;;2.55;1.70;;;;;;;25.85;23.49;101145.13;5060375;28;20447;-61
2022/05/04 10:55:18;;;;;;;1.98;1.50;;;;;;;26.17;23.09;101145.06;5056957;28;20536;-61
2022/05/04 10:57:46;;;;;;;1.63;1.53;;;;;;;26.38;22.84;101140.56;5052427;28;20535;-61
2022/05/04 11:00:21;;;;;;;1.70;1.30;;;;;;;26.23;23.28;101135.03;5051317;28;20835;-60
2022/05/04 11:02:50;;;;;;;1.40;1.30;;;;;;;26.29;22.99;101137.53;5057058;28;20529;-57
2022/05/04 11:05:17;;;;;;;2.63;1.63;;;;;;;26.16;23.34;101127.13;5056199;28;20509;-60
2022/05/04 11:07:48;;;;;;;2.17;1.55;;;;;;;26.41;22.92;101133.75;5051142;28;20523;-58
2022/05/04 11:10:15;;;;;;;3.15;1.67;;;;;;;26.46;22.69;101125.63;5052365;28;20420;-61
2022/05/04 11:12:46;;;;;;;2.25;1.50;;;;;;;26.47;22.65;101127.25;5050896;28;20457;-61
2022/05/04 11:15:14;;;;;;;2.30;1.50;;;;;;;26.51;22.81;101133.81;5055021;28;20415;-60
2022/05/04 11:17:43;;;;;;;2.03;1.50;;;;;;;26.52;22.54;101119.94;5054601;28;20427;-57
2022/05/04 11:20:14;;;;;;;2.80;1.77;;;;;;;26.55;22.84;101117.78;5054399;28;20440;-60
2022/05/04 11:22:41;;;;;;;1.70;1.60;;;;;;;26.61;22.78;101108.56;5052020;28;20900;-61
2022/05/04 11:25:10;;;;;;;3.30;1.83;;;;;;;26.81;22.54;101113.22;5053828;28;20427;-61
2022/05/04 11:27:37;;;;;;;1.98;1.63;;;;;;;26.83;22.13;101105.63;5051098;28;21015;-57
2022/05/04 11:30:05;;;;;;;2.40;1.60;;;;;;;26.75;21.79;101103.44;5058179;28;20458;-57
2022/05/04 11:32:34;;;;;;;2.35;1.45;;;;;;;26.74;21.85;101109.94;5059087;28;20794;-58
2022/05/04 11:35:01;;;;;;;4.90;1.50;;;;;;;26.62;22.28;101099.34;5055158;28;21018;-60
2022/05/04 11:37:31;;;;;;;2.60;1.50;;;;;;;26.73;21.71;101094.75;5057856;28;20511;-60
2022/05/04 11:40:09;;;;;;;1.52;1.33;;;;;;;26.82;21.95;101095.84;5077284;28;20516;-61
2022/05/04 11:42:36;;;;;;;1.55;1.45;;;;;;;26.68;22.03;101104.50;5079278;28;20454;-57
2022/05/04 11:45:04;;;;;;;1.60;1.50;;;;;;;26.74;21.86;101096.34;5089812;28;20475;-58
2022/05/04 11:47:33;;;;;;;1.70;1.60;;;;;;;26.56;22.28;101103.91;5080379;28;20441;-60
2022/05/04 11:49:59;;;;;;;1.40;1.30;;;;;;;26.80;22.24;101096.09;5077103;28;20835;-60
2022/05/04 11:52:27;;;;;;;2.70;1.65;;;;;;;26.83;21.78;101094.72;5052868;28;20517;-60
2022/05/04 11:54:54;;;;;;;2.30;1.65;;;;;;;26.72;21.53;101090.38;5066971;28;21259;-60
2022/05/04 11:57:22;;;;;;;2.38;1.50;;;;;;;26.86;20.97;101086.03;5063404;28;20419;-57
2022/05/04 11:59:50;;;;;;;1.57;1.47;;;;;;;26.88;20.95;101087.41;5066455;28;20431;-59
2022/05/04 12:02:17;;;;;;;3.90;2.10;;;;;;;26.82;20.90;101080.31;5064545;28;20824;-58
2022/05/04 12:04:47;;;;;;;3.60;1.60;;;;;;;26.77;21.01;101079.50;5064909;28;20531;-57
2022/05/04 12:07:14;;;;;;;1.85;1.50;;;;;;;26.69;21.23;101073.50;5066577;28;20423;-60